createdAt,value
2018-10-03T00:00:07.611Z,3.25
2018-10-03T00:02:37.708Z,2.83
2018-10-03T00:05:07.809Z,2.57
2018-10-03T00:07:37.783Z,3.07
2018-10-03T00:10:07.969Z,3.63
2018-10-03T00:12:38.330Z,3.57
2018-10-03T00:15:08.435Z,3.57
2018-10-03T00:17:38.430Z,3.53
2018-10-03T00:20:08.739Z,2.93
2018-10-03T00:22:38.735Z,2.77
2018-10-03T00:25:08.797Z,3.10
2018-10-03T00:27:38.869Z,3.90
2018-10-03T00:30:09.086Z,3.47
2018-10-03T00:32:39.100Z,3.27
2018-10-03T00:35:09.089Z,3.17
2018-10-03T00:37:39.119Z,3.30
2018-10-03T00:40:09.324Z,3.40
2018-10-03T00:42:39.439Z,2.93
2018-10-03T00:45:09.501Z,3.03
2018-10-03T00:47:39.615Z,3.50
2018-10-03T00:50:09.683Z,3.50
2018-10-03T00:52:39.803Z,3.20
2018-10-03T00:55:09.820Z,2.73
2018-10-03T00:57:39.913Z,2.80
2018-10-03T01:00:10.173Z,3.47
2018-10-03T01:02:40.176Z,2.67
2018-10-03T01:05:10.298Z,2.77
2018-10-03T01:07:40.376Z,2.50
2018-10-03T01:10:10.413Z,2.73
2018-10-03T01:12:40.371Z,2.50
2018-10-03T01:15:10.407Z,3.17
2018-10-03T01:17:40.435Z,2.37
2018-10-03T01:20:10.496Z,3.17
2018-10-03T01:22:40.521Z,2.57
2018-10-03T01:25:10.628Z,3.07
2018-10-03T01:27:40.639Z,2.93
2018-10-03T01:30:10.717Z,2.40
2018-10-03T01:32:40.853Z,2.30
2018-10-03T01:35:11.030Z,2.20
2018-10-03T01:37:42.211Z,2.27
2018-10-03T01:40:12.474Z,2.10
2018-10-03T01:42:42.496Z,3.47
2018-10-03T01:45:12.631Z,3.30
2018-10-03T01:47:42.737Z,2.50
2018-10-03T01:50:12.802Z,2.93
2018-10-03T01:52:42.809Z,2.57
2018-10-03T01:55:12.900Z,2.70
2018-10-03T01:57:42.928Z,3.67
2018-10-03T02:00:13.056Z,2.20
2018-10-03T02:02:43.106Z,3.60
2018-10-03T02:05:13.154Z,3.17
2018-10-03T02:07:43.427Z,3.07
2018-10-03T02:10:13.550Z,3.03
2018-10-03T02:12:43.628Z,3.30
2018-10-03T02:15:13.753Z,3.33
2018-10-03T02:17:43.861Z,3.60
2018-10-03T02:20:13.962Z,4.77
2018-10-03T02:22:44.236Z,4.00
2018-10-03T02:25:14.258Z,4.13
2018-10-03T02:27:44.227Z,4.40
2018-10-03T02:30:14.279Z,4.60
2018-10-03T02:32:44.446Z,4.63
2018-10-03T02:35:14.587Z,4.57
2018-10-03T02:37:44.822Z,4.13
2018-10-03T02:40:14.990Z,4.30
2018-10-03T02:42:45.028Z,4.27
2018-10-03T02:45:15.066Z,4.20
2018-10-03T02:47:45.156Z,4.47
2018-10-03T02:50:15.446Z,3.53
2018-10-03T02:52:45.578Z,4.00
2018-10-03T02:55:15.657Z,4.60
2018-10-03T02:57:46.072Z,4.27
2018-10-03T03:00:16.024Z,3.77
2018-10-03T03:02:46.014Z,4.00
2018-10-03T03:05:16.008Z,4.40
2018-10-03T03:07:46.095Z,3.60
2018-10-03T03:10:16.150Z,4.60
2018-10-03T03:12:46.364Z,4.67
2018-10-03T03:15:16.367Z,3.03
2018-10-03T03:17:46.566Z,4.22
2018-10-03T03:20:16.788Z,4.00
2018-10-03T03:22:46.833Z,4.28
2018-10-03T03:25:17.399Z,3.10
2018-10-03T03:27:47.465Z,3.73
2018-10-03T03:30:17.489Z,3.80
2018-10-03T03:32:47.496Z,4.08
2018-10-03T03:35:17.603Z,3.73
2018-10-03T03:37:47.628Z,3.53
2018-10-03T03:40:17.829Z,4.47
2018-10-03T03:42:47.923Z,4.03
2018-10-03T03:45:17.998Z,4.23
2018-10-03T03:47:48.108Z,4.07
2018-10-03T03:50:18.116Z,3.50
2018-10-03T03:52:48.126Z,3.70
2018-10-03T03:55:18.180Z,3.73
2018-10-03T03:57:48.356Z,3.50
2018-10-03T04:00:18.516Z,3.55
2018-10-03T04:02:48.506Z,3.92
2018-10-03T04:05:18.677Z,3.10
2018-10-03T04:07:48.986Z,3.57
2018-10-03T04:10:19.028Z,3.80
2018-10-03T04:12:49.182Z,3.72
2018-10-03T04:15:19.347Z,3.80
2018-10-03T04:17:49.365Z,3.30
2018-10-03T04:20:19.416Z,3.70
2018-10-03T04:22:49.407Z,3.92
2018-10-03T04:25:19.470Z,3.52
2018-10-03T04:27:49.673Z,3.63
2018-10-03T04:30:19.705Z,3.23
2018-10-03T04:32:49.845Z,3.97
2018-10-03T04:35:19.984Z,3.53
2018-10-03T04:37:49.976Z,3.80
2018-10-03T04:40:20.061Z,4.30
2018-10-03T04:42:50.063Z,3.97
2018-10-03T04:45:20.167Z,4.00
2018-10-03T04:47:50.368Z,4.57
2018-10-03T04:50:20.499Z,3.90
2018-10-03T04:52:50.679Z,4.77
2018-10-03T04:55:20.696Z,4.23
2018-10-03T04:57:50.715Z,4.53
2018-10-03T05:00:20.736Z,3.30
2018-10-03T05:02:50.879Z,4.03
2018-10-03T05:05:20.897Z,3.90
2018-10-03T05:07:51.117Z,3.77
2018-10-03T05:10:21.235Z,4.50
2018-10-03T05:12:51.367Z,4.60
2018-10-03T05:15:21.463Z,3.80
2018-10-03T05:17:51.582Z,4.43
2018-10-03T05:20:21.855Z,4.10
2018-10-03T05:22:51.857Z,4.30
2018-10-03T05:25:22.032Z,3.80
2018-10-03T05:27:52.232Z,3.67
2018-10-03T05:30:22.381Z,3.40
2018-10-03T05:32:52.501Z,4.10
2018-10-03T05:35:22.657Z,4.77
2018-10-03T05:37:52.827Z,4.10
2018-10-03T05:40:22.859Z,4.40
2018-10-03T05:42:52.875Z,3.57
2018-10-03T05:45:22.879Z,3.97
2018-10-03T05:47:52.891Z,3.67
2018-10-03T05:50:23.038Z,3.97
2018-10-03T05:52:53.099Z,3.37
2018-10-03T05:55:23.247Z,3.63
2018-10-03T05:57:53.227Z,4.25
2018-10-03T06:00:23.561Z,3.50
2018-10-03T06:02:53.782Z,3.73
2018-10-03T06:05:23.813Z,3.73
2018-10-03T06:07:54.066Z,4.47
2018-10-03T06:10:24.188Z,4.77
2018-10-03T06:12:54.240Z,4.22
2018-10-03T06:15:24.429Z,4.23
2018-10-03T06:17:54.615Z,4.47
2018-10-03T06:20:24.762Z,4.20
2018-10-03T06:22:54.796Z,4.27
2018-10-03T06:25:24.882Z,4.13
2018-10-03T06:27:54.965Z,4.33
2018-10-03T06:30:24.866Z,3.67
2018-10-03T06:32:54.904Z,3.80
2018-10-03T06:35:24.902Z,3.70
2018-10-03T06:37:55.011Z,4.03
2018-10-03T06:40:25.234Z,4.10
2018-10-03T06:42:55.218Z,4.30
2018-10-03T06:45:25.256Z,3.57
2018-10-03T06:47:55.242Z,3.70
2018-10-03T06:50:25.485Z,3.60
2018-10-03T06:52:55.498Z,4.40
2018-10-03T06:55:26.508Z,3.58
2018-10-03T06:57:56.590Z,4.05
2018-10-03T07:00:26.758Z,3.77
2018-10-03T07:02:56.840Z,4.05
2018-10-03T07:05:26.875Z,3.43
2018-10-03T07:07:56.942Z,3.40
2018-10-03T07:10:26.964Z,3.50
2018-10-03T07:12:57.043Z,5.17
2018-10-03T07:15:27.075Z,4.43
2018-10-03T07:17:57.136Z,4.00
2018-10-03T07:20:27.410Z,3.87
2018-10-03T07:22:57.974Z,4.27
2018-10-03T07:25:28.076Z,4.00
2018-10-03T07:27:58.046Z,4.70
2018-10-03T07:30:28.065Z,4.30
2018-10-03T07:32:58.248Z,5.07
2018-10-03T07:35:28.234Z,5.40
2018-10-03T07:37:58.338Z,4.57
2018-10-03T07:40:28.390Z,4.93
2018-10-03T07:42:58.505Z,4.07
2018-10-03T07:45:28.679Z,3.90
2018-10-03T07:47:58.822Z,5.93
2018-10-03T07:50:28.834Z,5.93
2018-10-03T07:52:58.969Z,4.30
2018-10-03T07:55:29.140Z,4.63
2018-10-03T07:57:59.197Z,5.33
2018-10-03T08:00:30.294Z,5.57
2018-10-03T08:03:00.657Z,5.40
2018-10-03T08:05:30.850Z,4.43
2018-10-03T08:08:00.878Z,5.10
2018-10-03T08:10:30.931Z,4.43
2018-10-03T08:13:00.919Z,4.53
2018-10-03T08:15:31.025Z,4.33
2018-10-03T08:18:01.056Z,4.30
2018-10-03T08:20:31.102Z,4.17
2018-10-03T08:23:01.198Z,4.20
2018-10-03T08:25:31.382Z,3.23
2018-10-03T08:28:01.377Z,3.70
2018-10-03T08:30:31.421Z,3.63
2018-10-03T08:33:01.567Z,4.17
2018-10-03T08:35:31.517Z,3.93
2018-10-03T08:38:01.486Z,3.30
2018-10-03T08:40:31.834Z,4.00
2018-10-03T08:43:01.857Z,3.50
2018-10-03T08:45:31.969Z,3.80
2018-10-03T08:48:02.015Z,3.07
2018-10-03T08:50:32.118Z,3.23
2018-10-03T08:53:02.290Z,4.03
2018-10-03T08:55:32.306Z,3.70
2018-10-03T08:58:02.500Z,3.53
2018-10-03T09:00:32.573Z,3.30
2018-10-03T09:03:02.757Z,4.37
2018-10-03T09:05:32.768Z,3.83
2018-10-03T09:08:13.089Z,4.37
2018-10-03T09:10:44.544Z,3.40
2018-10-03T09:13:14.851Z,3.97
2018-10-03T09:15:45.033Z,3.97
2018-10-03T09:18:15.193Z,4.33
2018-10-03T09:20:45.453Z,4.33
2018-10-03T09:23:15.616Z,3.97
2018-10-03T09:25:45.715Z,4.10
2018-10-03T09:28:15.906Z,4.70
2018-10-03T09:30:45.992Z,5.10
2018-10-03T09:33:16.266Z,4.43
2018-10-03T09:35:46.400Z,4.07
2018-10-03T09:38:16.605Z,3.73
2018-10-03T09:40:46.643Z,4.40
2018-10-03T09:43:16.711Z,4.03
2018-10-03T09:45:46.878Z,4.47
2018-10-03T09:48:16.989Z,4.12
2018-10-03T09:50:47.106Z,4.03
2018-10-03T09:53:17.171Z,4.37
2018-10-03T09:55:47.301Z,4.17
2018-10-03T09:58:17.391Z,4.00
2018-10-03T10:00:52.770Z,3.33
2018-10-03T10:03:23.027Z,3.47
2018-10-03T10:05:53.131Z,3.10
2018-10-03T10:08:23.217Z,3.27
2018-10-03T10:10:53.299Z,5.13
2018-10-03T10:13:23.265Z,4.27
2018-10-03T10:15:53.376Z,5.17
2018-10-03T10:18:23.456Z,3.97
2018-10-03T10:20:53.598Z,3.67
2018-10-03T10:23:23.747Z,3.03
2018-10-03T10:25:53.885Z,3.30
2018-10-03T10:28:23.996Z,2.97
2018-10-03T10:30:54.034Z,3.50
2018-10-03T10:33:24.071Z,3.33
2018-10-03T10:35:54.207Z,3.40
2018-10-03T10:38:24.266Z,3.27
2018-10-03T10:40:54.348Z,2.57
2018-10-03T10:43:24.523Z,2.97
2018-10-03T10:45:54.514Z,2.70
2018-10-03T10:48:24.488Z,2.80
2018-10-03T10:50:54.590Z,3.07
2018-10-03T10:53:24.550Z,4.27
2018-10-03T10:55:54.657Z,3.63
2018-10-03T10:58:24.832Z,4.23
2018-10-03T11:00:55.050Z,3.40
2018-10-03T11:03:25.070Z,2.80
2018-10-03T11:05:55.214Z,3.23
2018-10-03T11:08:25.382Z,3.30
2018-10-03T11:10:55.432Z,3.13
2018-10-03T11:13:25.485Z,2.53
2018-10-03T11:15:55.466Z,4.40
2018-10-03T11:18:25.636Z,3.70
2018-10-03T11:20:55.786Z,3.60
2018-10-03T11:23:25.912Z,2.83
2018-10-03T11:25:56.222Z,3.50
2018-10-03T11:28:26.214Z,3.20
2018-10-03T11:30:56.235Z,3.27
2018-10-03T11:33:26.370Z,3.20
2018-10-03T11:35:56.703Z,3.13
2018-10-03T11:38:26.952Z,3.47
2018-10-03T11:40:57.099Z,3.07
2018-10-03T11:43:27.148Z,3.60
2018-10-03T11:45:57.306Z,3.83
2018-10-03T11:48:27.354Z,5.17
2018-10-03T11:50:57.516Z,3.50
2018-10-03T11:53:28.293Z,3.23
2018-10-03T11:55:58.553Z,4.17
2018-10-03T11:58:28.665Z,3.50
2018-10-03T12:00:58.782Z,4.10
2018-10-03T12:03:28.843Z,3.67
2018-10-03T12:05:58.889Z,3.80
2018-10-03T12:08:28.897Z,3.53
2018-10-03T12:10:59.016Z,3.67
2018-10-03T12:13:29.092Z,3.17
2018-10-03T12:15:59.251Z,2.70
2018-10-03T12:18:29.307Z,3.03
2018-10-03T12:20:59.476Z,3.67
2018-10-03T12:23:29.640Z,3.67
2018-10-03T12:25:59.748Z,3.10
2018-10-03T12:28:29.734Z,3.07
2018-10-03T12:30:59.853Z,3.23
2018-10-03T12:33:29.991Z,2.73
2018-10-03T12:35:59.957Z,2.85
2018-10-03T12:38:30.135Z,3.37
2018-10-03T12:41:00.107Z,3.53
2018-10-03T12:43:30.232Z,3.40
2018-10-03T12:46:00.428Z,2.67
2018-10-03T12:48:30.466Z,2.97
2018-10-03T12:51:00.591Z,3.47
2018-10-03T12:53:31.134Z,2.90
2018-10-03T12:56:01.151Z,2.97
2018-10-03T12:58:31.312Z,3.13
2018-10-03T13:01:01.324Z,2.83
2018-10-03T13:03:31.891Z,3.27
2018-10-03T13:06:02.007Z,2.33
2018-10-03T13:08:32.246Z,2.92
2018-10-03T13:11:02.339Z,3.00
2018-10-03T13:13:32.973Z,2.73
2018-10-03T13:16:03.280Z,2.80
2018-10-03T13:18:33.489Z,2.30
2018-10-03T13:21:03.613Z,2.60
2018-10-03T13:23:33.831Z,2.80
2018-10-03T13:26:03.946Z,2.60
2018-10-03T13:28:34.003Z,2.47
2018-10-03T13:31:04.127Z,2.35
2018-10-03T13:33:34.316Z,3.05
2018-10-03T13:36:04.396Z,2.97
2018-10-03T13:38:34.537Z,2.70
2018-10-03T13:41:04.570Z,2.67
2018-10-03T13:43:34.598Z,2.87
2018-10-03T13:46:04.605Z,2.00
2018-10-03T13:48:34.808Z,2.80
2018-10-03T13:51:04.959Z,2.97
2018-10-03T13:53:35.191Z,2.40
2018-10-03T13:56:05.393Z,2.57
2018-10-03T13:58:35.463Z,1.87
2018-10-03T14:01:05.765Z,2.47
2018-10-03T14:03:35.955Z,2.70
2018-10-03T14:06:06.226Z,2.73
2018-10-03T14:08:36.430Z,3.97
2018-10-03T14:11:06.667Z,3.67
2018-10-03T14:13:36.787Z,3.60
2018-10-03T14:16:07.017Z,3.33
2018-10-03T14:18:37.269Z,3.03
2018-10-03T14:21:07.267Z,3.43
2018-10-03T14:23:37.265Z,3.50
2018-10-03T14:26:07.373Z,2.70
2018-10-03T14:28:37.601Z,2.80
2018-10-03T14:31:07.913Z,4.40
2018-10-03T14:33:37.941Z,3.17
2018-10-03T14:36:08.193Z,2.90
2018-10-03T14:38:38.316Z,2.80
2018-10-03T14:41:08.771Z,2.23
2018-10-03T14:43:38.846Z,2.70
2018-10-03T14:46:09.062Z,1.97
2018-10-03T14:48:39.115Z,3.37
2018-10-03T14:51:09.155Z,2.35
2018-10-03T14:53:39.279Z,2.75
2018-10-03T14:56:09.715Z,3.10
2018-10-03T14:58:39.866Z,3.13
2018-10-03T15:01:09.890Z,2.83
2018-10-03T15:03:40.013Z,3.70
2018-10-03T15:06:10.160Z,2.73
2018-10-03T15:08:40.151Z,2.60
2018-10-03T15:11:10.253Z,3.65
2018-10-03T15:13:40.312Z,2.50
2018-10-03T15:16:10.822Z,2.87
2018-10-03T15:18:41.020Z,3.60
2018-10-03T15:21:11.067Z,2.93
2018-10-03T15:23:41.146Z,3.17
2018-10-03T15:26:11.291Z,2.42
2018-10-03T15:28:41.397Z,3.47
2018-10-03T15:31:11.537Z,3.40
2018-10-03T15:33:41.720Z,3.20
2018-10-03T15:36:12.319Z,3.13
2018-10-03T15:38:43.297Z,2.87
2018-10-03T15:41:13.490Z,3.27
2018-10-03T15:43:43.541Z,3.53
2018-10-03T15:46:13.587Z,3.13
2018-10-03T15:48:43.598Z,3.33
2018-10-03T15:51:13.938Z,3.10
2018-10-03T15:53:44.126Z,2.47
2018-10-03T15:56:14.279Z,2.43
2018-10-03T15:58:44.465Z,2.20
2018-10-03T16:01:14.824Z,1.90
2018-10-03T16:03:44.958Z,2.17
2018-10-03T16:06:15.122Z,2.57
2018-10-03T16:08:45.286Z,2.53
2018-10-03T16:11:15.350Z,2.83
2018-10-03T16:13:45.570Z,2.70
2018-10-03T16:16:15.715Z,2.50
2018-10-03T16:18:45.901Z,2.13
2018-10-03T16:21:16.377Z,2.73
2018-10-03T16:23:46.424Z,1.95
2018-10-03T16:26:16.586Z,1.73
2018-10-03T16:28:46.636Z,2.40
2018-10-03T16:31:17.685Z,2.90
2018-10-03T16:33:47.941Z,2.58
2018-10-03T16:36:18.006Z,2.90
2018-10-03T16:38:48.143Z,2.90
2018-10-03T16:41:18.248Z,2.43
2018-10-03T16:43:48.405Z,3.25
2018-10-03T16:46:18.596Z,2.50
2018-10-03T16:48:49.044Z,2.83
2018-10-03T16:51:20.361Z,3.03
2018-10-03T16:53:50.552Z,2.75
2018-10-03T16:56:20.788Z,2.60
2018-10-03T16:58:50.927Z,2.90
2018-10-03T17:01:21.902Z,2.57
2018-10-03T17:03:52.050Z,2.63
2018-10-03T17:06:22.342Z,2.27
2018-10-03T17:08:52.409Z,2.43
2018-10-03T17:11:22.486Z,2.10
2018-10-03T17:14:34.754Z,2.17
2018-10-03T17:17:04.925Z,1.93
2018-10-03T17:19:35.336Z,1.77
2018-10-03T17:22:05.541Z,2.27
2018-10-03T17:24:36.809Z,1.70
2018-10-03T17:27:07.210Z,2.10
2018-10-03T17:29:37.341Z,1.90
2018-10-03T17:32:07.559Z,1.90
2018-10-03T17:34:37.479Z,2.63
2018-10-03T17:37:07.687Z,2.98
2018-10-03T17:39:37.901Z,3.00
2018-10-03T17:42:08.183Z,2.43
2018-10-03T17:44:38.373Z,3.57
2018-10-03T17:47:08.576Z,4.10
2018-10-03T17:49:38.775Z,4.13
2018-10-03T17:52:08.889Z,3.37
2018-10-03T17:54:38.921Z,2.97
2018-10-03T17:57:09.121Z,2.93
2018-10-03T17:59:39.203Z,3.47
2018-10-03T18:02:11.041Z,2.90
2018-10-03T18:04:41.121Z,2.93
2018-10-03T18:07:11.311Z,2.90
2018-10-03T18:09:41.390Z,3.90
2018-10-03T18:12:11.671Z,3.15
2018-10-03T18:14:41.771Z,3.20
2018-10-03T18:17:11.952Z,2.40
2018-10-03T18:19:42.210Z,2.97
2018-10-03T18:22:12.331Z,2.80
2018-10-03T18:24:43.575Z,2.37
2018-10-03T18:27:13.870Z,2.30
2018-10-03T18:29:44.049Z,2.43
2018-10-03T18:32:14.224Z,3.40
2018-10-03T18:34:44.309Z,3.33
2018-10-03T18:37:14.509Z,2.80
2018-10-03T18:39:44.626Z,2.67
2018-10-03T18:42:14.864Z,2.63
2018-10-03T18:44:44.937Z,3.67
2018-10-03T18:47:15.129Z,2.17
2018-10-03T18:49:46.396Z,3.33
2018-10-03T18:52:16.725Z,2.55
2018-10-03T18:54:46.889Z,3.10
2018-10-03T18:57:17.008Z,2.83
2018-10-03T18:59:47.088Z,3.10
2018-10-03T19:02:17.378Z,2.13
2018-10-03T19:04:47.578Z,3.30
2018-10-03T19:07:17.913Z,2.73
2018-10-03T19:09:48.162Z,2.70
2018-10-03T19:12:18.399Z,2.93
2018-10-03T19:14:48.340Z,3.12
2018-10-03T19:17:18.471Z,3.10
2018-10-03T19:19:48.774Z,3.00
2018-10-03T19:22:19.427Z,2.90
2018-10-03T19:24:49.429Z,3.50
2018-10-03T19:27:19.513Z,3.35
2018-10-03T19:29:49.554Z,4.00
2018-10-03T19:32:19.786Z,3.40
2018-10-03T19:34:49.800Z,3.50
2018-10-03T19:37:19.912Z,3.70
2018-10-03T19:39:50.082Z,3.83
2018-10-03T19:42:20.371Z,3.73
2018-10-03T19:44:50.285Z,3.67
2018-10-03T19:47:20.494Z,4.40
2018-10-03T19:49:50.670Z,3.47
2018-10-03T19:52:20.811Z,3.73
2018-10-03T19:54:50.890Z,3.63
2018-10-03T19:57:21.049Z,4.30
2018-10-03T19:59:51.267Z,4.13
2018-10-03T20:02:21.399Z,4.50
2018-10-03T20:04:51.598Z,4.17
2018-10-03T20:07:22.042Z,4.13
2018-10-03T20:09:52.293Z,4.83
2018-10-03T20:12:22.346Z,4.77
2018-10-03T20:14:52.524Z,5.67
2018-10-03T20:17:22.559Z,5.40
2018-10-03T20:19:52.702Z,5.70
2018-10-03T20:22:22.783Z,4.77
2018-10-03T20:24:52.816Z,5.03
2018-10-03T20:27:22.981Z,5.07
2018-10-03T20:29:52.991Z,5.03
2018-10-03T20:32:23.123Z,4.30
2018-10-03T20:34:53.572Z,5.50
2018-10-03T20:37:23.728Z,5.10
2018-10-03T20:39:53.773Z,5.70
2018-10-03T20:42:23.871Z,5.30
2018-10-03T20:44:53.991Z,5.27
2018-10-03T20:47:24.152Z,5.70
2018-10-03T20:49:54.290Z,5.90
2018-10-03T20:52:24.432Z,5.63
2018-10-03T20:54:54.437Z,5.77
2018-10-03T20:57:24.595Z,5.80
2018-10-03T20:59:54.746Z,6.45
2018-10-03T21:02:24.903Z,5.63
2018-10-03T21:04:55.109Z,5.73
2018-10-03T21:07:25.124Z,5.57
2018-10-03T21:09:55.063Z,6.30
2018-10-03T21:12:25.227Z,5.27
2018-10-03T21:14:55.798Z,5.60
2018-10-03T21:17:26.082Z,6.13
2018-10-03T21:20:06.095Z,5.33
2018-10-03T21:22:36.308Z,4.73
2018-10-03T21:25:06.402Z,4.80
2018-10-03T21:27:36.422Z,5.30
2018-10-03T21:30:07.388Z,5.37
2018-10-03T21:32:37.944Z,5.50
2018-10-03T21:35:08.284Z,4.80
2018-10-03T21:37:38.558Z,4.93
2018-10-03T21:40:08.747Z,4.83
2018-10-03T21:42:38.897Z,5.07
2018-10-03T21:45:08.897Z,4.77
2018-10-03T21:47:39.051Z,5.40
2018-10-03T21:50:09.073Z,6.10
2018-10-03T21:52:39.341Z,8.97
2018-10-03T21:55:09.367Z,8.07
2018-10-03T21:57:39.371Z,6.63
2018-10-03T22:00:10.001Z,6.13
2018-10-03T22:02:40.149Z,6.60
2018-10-03T22:05:10.710Z,6.07
2018-10-03T22:07:40.826Z,5.60
2018-10-03T22:10:10.934Z,5.60
2018-10-03T22:12:41.064Z,4.80
2018-10-03T22:15:11.054Z,4.53
2018-10-03T22:17:41.804Z,4.77
2018-10-03T22:20:11.857Z,4.93
2018-10-03T22:22:42.007Z,5.10
2018-10-03T22:25:11.950Z,3.97
2018-10-03T22:27:42.002Z,4.43
2018-10-03T22:30:11.987Z,4.53
2018-10-03T22:32:42.114Z,4.33
2018-10-03T22:35:12.261Z,5.00
2018-10-03T22:37:42.434Z,4.33
2018-10-03T22:40:12.459Z,4.57
2018-10-03T22:42:44.005Z,4.53
2018-10-03T22:45:14.107Z,3.67
2018-10-03T22:47:44.298Z,4.33
2018-10-03T22:50:14.266Z,4.43
2018-10-03T22:52:44.304Z,4.37
2018-10-03T22:55:14.325Z,3.87
2018-10-03T22:57:44.389Z,3.80
2018-10-03T23:00:14.549Z,4.47
2018-10-03T23:02:44.517Z,4.07
2018-10-03T23:05:14.649Z,4.27
2018-10-03T23:07:44.609Z,4.23
2018-10-03T23:10:14.666Z,3.97
2018-10-03T23:12:44.894Z,4.43
2018-10-03T23:15:15.147Z,4.70
2018-10-03T23:17:45.183Z,4.17
2018-10-03T23:20:15.199Z,4.37
2018-10-03T23:22:45.245Z,4.67
2018-10-03T23:25:15.281Z,4.03
2018-10-03T23:27:45.237Z,4.63
2018-10-03T23:30:15.488Z,3.93
2018-10-03T23:32:45.686Z,4.30
2018-10-03T23:35:15.755Z,4.10
2018-10-03T23:37:45.723Z,4.03
2018-10-03T23:40:15.868Z,3.90
2018-10-03T23:42:45.912Z,4.27
2018-10-03T23:45:15.916Z,3.93
2018-10-03T23:47:45.908Z,4.40
2018-10-03T23:50:16.024Z,4.07
2018-10-03T23:52:46.225Z,3.90
2018-10-03T23:55:16.274Z,3.70
2018-10-03T23:57:46.422Z,4.03
